Domov               UVHVVR             MKGP            O straneh              
ZDRAVSTVENO VARSTVO RASTLIN
  MREŽA AGROMET. POSTAJ
 ► PROGNOSTIČNA OBVESTILA
AGROMETEOROLOŠKI PODATKI -
ARSO
OBVLADOVANJE TVEGANJ ZARADI
NEUGODNIH VREMENSKIH RAZMER
  ► NARAVNE NESREČE
  ► SUŠA/MOČA
  ► NAMAKANJE
  ► ŽLED (gozdarstvo)
KARTOGRAFSKI PRIKAZI
SPLETNE POVEZAVE
PROJEKTI IN PUBLIKACIJE

AGROMETEOROLOŠKA MREŽA: VREMENSKE POSTAJE IN FENOLOŠKA OPAZOVANJA

Pregled podatkov za lokacijo Dutovlje, meteorološka postaja 38560

Pregled senzorjev na lokaciji

ID Ime Zadnja
vrednost
Datum
zadnje
spremembe
Tip
senzorja
4338 Omočenost lista (U) 0 U 23.3.2019 00:00 A730WET
2016 Padavine (mm) 0 mm 23.3.2019 00:00 Rain-O-Matic
2019 Relativna vlaga 2 m (% RH) 37 % RH 23.3.2019 00:00 50YA
2018 Temperatura 2 m (°C) 11,62 °C 23.3.2019 00:00 50YA

Pregled podatkov zadnjih 24 ur

Zap.
št.
Datum in čas Dutovlje
Omočenost
lista
Padavine Relativna
vlaga
2
m
Temperatura
2
m
1 22.3.2019 23:30
2 22.3.2019 23:00 0 0 37 11,6
3 22.3.2019 22:30 0 0 33,3 12,7
4 22.3.2019 22:00 0 0 33,2 12,2
5 22.3.2019 21:30 0 0 31,5 12,8
6 22.3.2019 21:00 0 0 33,2 12,2
7 22.3.2019 20:30 0 0 34,1 12
8 22.3.2019 20:00 0 0 31,2 13,3
9 22.3.2019 19:30 0 0 30,7 13,3
10 22.3.2019 19:00 0 0 28,1 13,4
11 22.3.2019 18:30 0 0 26,2 14,9
12 22.3.2019 18:00 0 0 21,9 17
13 22.3.2019 17:30 0 0 21,6 18
14 22.3.2019 17:00 0 0 20,3 19,1
15 22.3.2019 16:30 0 0 21 18,9
16 22.3.2019 16:00 0 0 21,3 19,3
17 22.3.2019 15:30 0 0 20,9 20
18 22.3.2019 15:00 0 0 18,2 20,2
19 22.3.2019 14:30 0 0 18,6 20,3
20 22.3.2019 14:00 0 0 18,4 20,3
21 22.3.2019 13:30 0 0 20,6 19,6
22 22.3.2019 13:00 0 0 20,7 18,9
23 22.3.2019 12:30 0 0 22,1 18,3
24 22.3.2019 12:00 0 0 23,2 17,6
25 22.3.2019 11:30 0 0 25,5 17
26 22.3.2019 11:00 0 0 25,4 16,5
27 22.3.2019 10:30 0 0 26,4 15,3
28 22.3.2019 10:00 0 0 27,7 14,9
29 22.3.2019 09:30 0 0 29,2 14,4
30 22.3.2019 09:00 0 0 35,3 13,1
31 22.3.2019 08:30 0 0 36,2 12,3
32 22.3.2019 08:00 0 0 39,4 11
33 22.3.2019 07:30 0 0 45,1 8,7
34 22.3.2019 07:00 0 0 50,1 6,4
35 22.3.2019 06:30 0 0 49,4 6,2
36 22.3.2019 06:00 0 0 49,5 5,7
37 22.3.2019 05:30 0 0 51,1 5
38 22.3.2019 05:00 0 0 49,7 5,4
39 22.3.2019 04:30 0 0 53,1 4,5
40 22.3.2019 04:00 0 0 48,8 5,9
41 22.3.2019 03:30 0 0 48,3 6
42 22.3.2019 03:00 0 0 45,3 6,4
43 22.3.2019 02:30 0 0 46,2 6,5
44 22.3.2019 02:00 0 0 45,2 7,2
45 22.3.2019 01:30 0 0 46,1 7,3
46 22.3.2019 01:00 0 0 47,6 7
47 22.3.2019 00:30 0 0 46,7 7,4
48 22.3.2019 00:00 0 0 43,5 8,8
© 2011 Ministrstvo za kmetijstvo, gozdarstvo in prehrano. Vse pravice pridržane.